Time;durP1;ratioP1;P1;durP2;ratioP2;P2;SDS_P1;SDS_P2;PMS_P1;PMS_P2;Temp;Humidity;BMP_temperature;BMP_pressure;BME280_temperature;BME280_humidity;BME280_pressure;Samples;Min_cycle;Max_cycle;Signal;HPM_P1;HPM_P2
2023/05/07 00:01:02;;;;;;;8.93;2.88;;;;;;;18.77;68.99;100106.97;5062931;28;20029;-73
2023/05/07 00:03:28;;;;;;;10.53;3.50;;;;;;;18.81;68.80;100108.59;5057923;28;20033;-73
2023/05/07 00:05:54;;;;;;;9.15;3.50;;;;;;;18.84;68.69;100103.13;5057864;28;20068;-73
2023/05/07 00:08:20;;;;;;;10.10;3.20;;;;;;;18.82;68.89;100098.81;5057885;28;20068;-73
2023/05/07 00:10:46;;;;;;;11.85;3.58;;;;;;;18.76;69.03;100110.59;5057623;28;20025;-73
2023/05/07 00:13:12;;;;;;;8.00;3.40;;;;;;;18.73;68.96;100105.38;5057589;28;20466;-73
2023/05/07 00:15:37;;;;;;;9.77;3.42;;;;;;;18.71;69.08;100107.25;5061542;28;20051;-73
2023/05/07 00:18:03;;;;;;;10.47;3.43;;;;;;;18.69;69.17;100109.06;5082772;28;20024;-73
2023/05/07 00:20:28;;;;;;;8.73;3.23;;;;;;;18.67;69.17;100110.94;5077699;28;20162;-73
2023/05/07 00:22:53;;;;;;;11.23;3.20;;;;;;;18.64;69.23;100112.81;5075836;28;20024;-73
2023/05/07 00:25:19;;;;;;;10.13;3.30;;;;;;;18.63;69.19;100116.41;5057659;28;20060;-73
2023/05/07 00:27:45;;;;;;;10.27;3.22;;;;;;;18.65;69.17;100111.03;5057230;28;20028;-73
2023/05/07 00:30:11;;;;;;;8.90;3.20;;;;;;;18.65;69.14;100113.69;5057246;28;20068;-73
2023/05/07 00:32:36;;;;;;;7.57;2.97;;;;;;;18.67;69.23;100109.16;5071925;28;20385;-73
2023/05/07 00:35:03;;;;;;;16.48;3.72;;;;;;;18.68;69.18;100115.34;5077371;28;20020;-73
2023/05/07 00:37:28;;;;;;;9.27;2.93;;;;;;;18.62;69.24;100122.66;5076735;28;20104;-73
2023/05/07 00:39:54;;;;;;;11.57;3.63;;;;;;;18.60;69.25;100116.53;5077393;28;20111;-73
2023/05/07 00:42:19;;;;;;;8.57;2.90;;;;;;;18.61;69.36;100123.59;5071314;28;20037;-73
2023/05/07 00:44:45;;;;;;;9.63;3.03;;;;;;;18.57;69.31;100121.97;5057104;28;20032;-73
2023/05/07 00:47:11;;;;;;;13.57;3.60;;;;;;;18.55;69.17;100123.84;5056831;28;20436;-73
2023/05/07 00:49:42;;;;;;;7.27;2.87;;;;;;;18.53;69.89;100128.38;5057216;28;20385;-73
2023/05/07 00:52:10;;;;;;;9.15;3.35;;;;;;;18.53;69.47;100124.81;5043031;28;20025;-73
2023/05/07 00:54:36;;;;;;;8.77;3.22;;;;;;;18.50;69.49;100121.34;5056932;28;20037;-73
2023/05/07 00:57:03;;;;;;;9.68;3.30;;;;;;;18.50;69.57;100121.34;5056623;28;20070;-73
2023/05/07 00:59:31;;;;;;;10.10;3.00;;;;;;;18.51;69.38;100123.09;5057689;28;20053;-73
2023/05/07 01:01:57;;;;;;;10.80;2.90;;;;;;;18.49;69.50;100124.09;5060592;28;20437;-73
2023/05/07 01:04:22;;;;;;;9.95;3.20;;;;;;;18.47;69.53;100118.81;5056830;28;20036;-73
2023/05/07 01:06:48;;;;;;;10.30;2.80;;;;;;;18.45;69.66;100122.50;5056512;28;20039;-73
2023/05/07 01:09:13;;;;;;;9.13;2.93;;;;;;;18.46;69.69;100129.56;5064056;28;20502;-72
2023/05/07 01:11:40;;;;;;;12.30;3.42;;;;;;;18.46;69.75;100126.88;5060279;28;20029;-73
2023/05/07 01:14:06;;;;;;;9.45;3.03;;;;;;;18.45;69.77;100123.34;5056650;28;20115;-72
2023/05/07 01:16:32;;;;;;;7.80;2.70;;;;;;;18.45;69.82;100130.50;5069990;28;20028;-73
2023/05/07 01:18:58;;;;;;;8.87;2.90;;;;;;;18.46;69.80;100121.56;5056576;28;20396;-73
2023/05/07 01:21:26;;;;;;;11.23;2.90;;;;;;;18.45;69.38;100126.00;5056418;28;20027;-72
2023/05/07 01:23:53;;;;;;;12.27;3.30;;;;;;;18.47;69.42;100118.81;5074253;28;20024;-73
2023/05/07 01:26:19;;;;;;;10.80;2.80;;;;;;;18.47;69.38;100116.16;5059981;28;20428;-72
2023/05/07 01:28:45;;;;;;;10.93;2.72;;;;;;;18.44;69.48;100123.38;5070555;28;20109;-73
2023/05/07 01:31:13;;;;;;;10.43;3.58;;;;;;;18.35;69.41;100112.16;5067954;28;20041;-72
2023/05/07 01:33:42;;;;;;;10.18;2.75;;;;;;;18.24;69.85;100119.72;5066492;28;20039;-72
2023/05/07 01:36:08;;;;;;;12.07;2.90;;;;;;;18.16;70.10;100128.00;5076391;28;20439;-73
2023/05/07 01:38:36;;;;;;;9.07;3.10;;;;;;;18.08;70.23;100128.28;5072571;28;20036;-73
2023/05/07 01:41:02;;;;;;;10.52;2.80;;;;;;;18.02;70.22;100125.88;5071942;28;20044;-72
2023/05/07 01:43:31;;;;;;;9.63;2.53;;;;;;;17.96;70.28;100120.72;5075363;28;20040;-72
2023/05/07 01:45:58;;;;;;;11.07;2.72;;;;;;;17.94;70.32;100122.56;5076163;28;20036;-72
2023/05/07 01:48:24;;;;;;;10.83;2.43;;;;;;;17.93;70.24;100121.72;5076203;28;20107;-73
2023/05/07 01:50:51;;;;;;;11.93;2.60;;;;;;;17.94;70.41;100120.78;5074658;28;20025;-73
2023/05/07 01:53:16;;;;;;;8.15;2.35;;;;;;;17.97;70.14;100122.47;5060239;28;20029;-73
2023/05/07 01:55:41;;;;;;;13.90;2.40;;;;;;;17.92;70.32;100124.41;5060257;28;20024;-72
2023/05/07 01:58:07;;;;;;;14.47;2.77;;;;;;;17.89;70.25;100116.53;5060239;28;20465;-72
2023/05/07 02:00:32;;;;;;;12.93;2.50;;;;;;;17.89;69.99;100121.88;5064569;28;21144;-72
2023/05/07 02:02:58;;;;;;;10.00;2.33;;;;;;;17.89;70.10;100121.88;5060281;28;20048;-72
2023/05/07 02:05:23;;;;;;;12.83;2.87;;;;;;;17.84;70.03;100114.03;5059980;28;20098;-72
2023/05/07 02:07:49;;;;;;;10.77;2.38;;;;;;;17.82;70.11;100115.03;5060146;28;20025;-73
2023/05/07 02:10:14;;;;;;;12.57;2.30;;;;;;;17.81;70.20;100113.31;5070832;28;20033;-73
2023/05/07 02:12:40;;;;;;;11.33;2.47;;;;;;;17.81;70.14;100114.16;5059648;28;20040;-73
2023/05/07 02:15:06;;;;;;;11.50;2.33;;;;;;;17.79;70.16;100114.22;5059707;28;20479;-73
2023/05/07 02:17:34;;;;;;;7.63;2.23;;;;;;;17.80;70.00;100112.41;5072735;28;20063;-72
2023/05/07 02:19:59;;;;;;;14.05;2.55;;;;;;;17.81;70.00;100106.16;5059879;28;20112;-73
2023/05/07 02:22:25;;;;;;;10.27;2.80;;;;;;;17.79;69.93;100100.91;5065623;28;20056;-72
2023/05/07 02:24:51;;;;;;;13.63;2.40;;;;;;;17.81;69.93;100092.00;5079432;28;20044;-72
2023/05/07 02:27:16;;;;;;;10.83;2.30;;;;;;;17.84;69.70;100095.38;5079666;28;20047;-72
2023/05/07 02:29:41;;;;;;;9.63;2.22;;;;;;;17.87;69.59;100089.09;5079739;28;20647;-73
2023/05/07 02:32:07;;;;;;;12.20;2.40;;;;;;;17.88;69.53;100083.72;5063647;28;20036;-72
2023/05/07 02:34:32;;;;;;;10.93;2.23;;;;;;;17.90;69.45;100083.66;5077029;28;20153;-73
2023/05/07 02:36:58;;;;;;;9.43;1.93;;;;;;;17.92;69.52;100082.69;5079719;28;20024;-73
2023/05/07 02:39:23;;;;;;;13.77;2.40;;;;;;;17.93;69.51;100088.84;5061697;28;20052;-72
2023/05/07 02:41:48;;;;;;;12.98;2.50;;;;;;;17.93;69.56;100078.19;5074345;28;20032;-72
2023/05/07 02:44:14;;;;;;;10.37;2.10;;;;;;;17.94;69.55;100086.16;5062179;28;20028;-72
2023/05/07 02:46:39;;;;;;;11.43;2.20;;;;;;;17.97;69.31;100079.84;5059267;28;20033;-73
2023/05/07 02:49:04;;;;;;;9.47;2.23;;;;;;;17.95;69.30;100076.34;5059313;28;20028;-72
2023/05/07 02:51:30;;;;;;;9.23;2.33;;;;;;;17.93;69.62;100083.53;5063455;28;20051;-72
2023/05/07 02:53:56;;;;;;;12.35;2.67;;;;;;;17.89;69.35;100079.25;5059360;28;20092;-73
2023/05/07 02:56:21;;;;;;;9.67;2.27;;;;;;;17.87;69.43;100089.09;5059061;28;20489;-72
2023/05/07 02:58:47;;;;;;;13.05;2.63;;;;;;;17.81;69.63;100094.66;5075131;28;20107;-73
2023/05/07 03:01:13;;;;;;;13.50;2.10;;;;;;;17.79;69.56;100098.25;5063747;28;20033;-73
2023/05/07 03:03:39;;;;;;;9.30;2.00;;;;;;;17.76;69.50;100094.81;5059070;28;20075;-73
2023/05/07 03:06:06;;;;;;;10.15;2.50;;;;;;;17.73;69.57;100102.91;5059134;28;20495;-72
2023/05/07 03:08:32;;;;;;;10.80;2.00;;;;;;;17.67;69.76;100109.34;5042756;28;20035;-72
2023/05/07 03:10:58;;;;;;;9.85;2.45;;;;;;;17.62;69.83;100112.19;5069203;28;20425;-72
2023/05/07 03:13:23;;;;;;;10.20;2.20;;;;;;;17.54;69.89;100124.88;5058663;28;20448;-72
2023/05/07 03:15:48;;;;;;;9.90;2.00;;;;;;;17.52;70.23;100131.19;5066118;28;20024;-72
2023/05/07 03:18:14;;;;;;;9.03;2.10;;;;;;;17.52;70.15;100137.38;5065217;28;20021;-72
2023/05/07 03:20:39;;;;;;;12.37;2.30;;;;;;;17.51;70.17;100146.28;5068182;28;20037;-72
2023/05/07 03:23:05;;;;;;;11.43;2.47;;;;;;;17.49;70.26;100135.72;5075533;28;20025;-72
2023/05/07 03:25:31;;;;;;;11.95;2.70;;;;;;;17.52;70.32;100145.38;5059044;28;20043;-72
2023/05/07 03:27:57;;;;;;;10.93;2.40;;;;;;;17.53;70.15;100144.44;5058396;28;20457;-72
2023/05/07 03:30:22;;;;;;;15.07;2.30;;;;;;;17.55;70.03;100139.06;5058472;28;20052;-72
2023/05/07 03:32:47;;;;;;;13.70;2.43;;;;;;;17.53;70.26;100140.94;5061438;28;20031;-72
2023/05/07 03:35:13;;;;;;;10.40;2.23;;;;;;;17.51;70.41;100146.28;5078653;28;20051;-72
2023/05/07 03:37:39;;;;;;;11.73;2.60;;;;;;;17.44;70.61;100137.63;5078398;28;20016;-72
2023/05/07 03:40:05;;;;;;;12.70;2.20;;;;;;;17.47;70.57;100144.66;5078615;28;20261;-72
2023/05/07 03:42:31;;;;;;;11.77;2.22;;;;;;;17.48;70.61;100149.94;5070268;28;20033;-72
2023/05/07 03:44:56;;;;;;;12.40;2.67;;;;;;;17.47;70.64;100145.50;5058323;28;20029;-72
2023/05/07 03:47:21;;;;;;;13.23;2.47;;;;;;;17.46;70.66;100146.44;5058316;28;20591;-72
2023/05/07 03:49:48;;;;;;;10.43;2.17;;;;;;;17.44;70.58;100150.94;5058591;28;20036;-72
2023/05/07 03:52:14;;;;;;;12.33;2.50;;;;;;;17.46;70.50;100151.75;5061809;28;20043;-72
2023/05/07 03:54:39;;;;;;;13.55;2.30;;;;;;;17.48;70.61;100141.97;5058188;28;20028;-72
2023/05/07 03:57:05;;;;;;;12.77;2.40;;;;;;;17.50;70.46;100137.44;5057876;28;20037;-72
2023/05/07 03:59:30;;;;;;;11.97;2.63;;;;;;;17.53;70.24;100143.59;5059006;28;20052;-72
2023/05/07 04:01:56;;;;;;;11.95;2.97;;;;;;;17.52;70.30;100149.84;5043982;28;20039;-72
2023/05/07 04:04:21;;;;;;;10.63;2.43;;;;;;;17.48;70.44;100155.28;5058116;28;20062;-72
2023/05/07 04:06:46;;;;;;;10.93;2.27;;;;;;;17.45;70.56;100157.16;5057835;28;20025;-72
2023/05/07 04:09:12;;;;;;;11.27;2.30;;;;;;;17.47;70.47;100164.16;5065452;28;20052;-72
2023/05/07 04:11:39;;;;;;;10.53;2.20;;;;;;;17.46;70.46;100157.09;5042927;28;20508;-72
2023/05/07 04:14:05;;;;;;;10.77;2.45;;;;;;;17.44;70.43;100153.59;5057962;28;20021;-72
2023/05/07 04:16:31;;;;;;;12.48;2.50;;;;;;;17.41;70.48;100151.06;5069711;28;20081;-72
2023/05/07 04:18:56;;;;;;;16.00;2.33;;;;;;;17.35;70.84;100156.59;5077857;28;20389;-72
2023/05/07 04:21:22;;;;;;;9.23;1.93;;;;;;;17.30;70.67;100159.41;5077740;28;20036;-72
2023/05/07 04:23:48;;;;;;;13.77;2.53;;;;;;;17.29;70.70;100163.00;5076933;28;20036;-72
2023/05/07 04:26:14;;;;;;;12.43;2.33;;;;;;;17.24;70.97;100158.75;5061502;28;20082;-72
2023/05/07 04:28:40;;;;;;;13.30;2.25;;;;;;;17.19;71.16;100161.56;5057493;28;20032;-72
2023/05/07 04:31:06;;;;;;;11.93;2.10;;;;;;;17.17;71.03;100158.94;5057430;28;20040;-72
2023/05/07 04:33:32;;;;;;;14.18;2.55;;;;;;;17.17;70.58;100169.59;5048570;28;20024;-72
2023/05/07 04:36:02;;;;;;;13.38;2.35;;;;;;;17.17;70.91;100177.56;5077432;28;20066;-72
2023/05/07 04:38:31;;;;;;;11.70;2.40;;;;;;;17.14;70.87;100166.19;5073134;28;20393;-72
2023/05/07 04:40:57;;;;;;;9.18;2.22;;;;;;;17.09;70.93;100171.66;5073951;28;20114;-72
2023/05/07 04:43:22;;;;;;;12.38;2.22;;;;;;;17.05;71.16;100183.31;5075720;28;20028;-72
2023/05/07 04:45:50;;;;;;;8.37;2.07;;;;;;;17.02;70.84;100180.75;5077050;28;20024;-72
2023/05/07 04:48:15;;;;;;;12.80;2.60;;;;;;;17.06;70.98;100188.56;5077313;28;20096;-72
2023/05/07 04:50:41;;;;;;;8.30;2.00;;;;;;;17.10;71.11;100189.34;5073863;28;20086;-71
2023/05/07 04:53:06;;;;;;;8.40;2.20;;;;;;;17.15;70.77;100191.88;5057119;28;20268;-72
2023/05/07 04:55:32;;;;;;;8.20;2.00;;;;;;;17.16;70.80;100194.47;5057135;28;20051;-72
2023/05/07 04:57:57;;;;;;;14.60;2.37;;;;;;;17.17;70.91;100198.88;5056991;28;20047;-72
2023/05/07 05:00:23;;;;;;;9.77;2.23;;;;;;;17.15;70.91;100206.03;5061417;28;20102;-72
2023/05/07 05:02:48;;;;;;;11.65;2.35;;;;;;;17.13;70.89;100207.03;5056915;28;20025;-72
2023/05/07 05:05:13;;;;;;;10.77;2.00;;;;;;;17.06;70.92;100214.31;5056897;28;20067;-72
2023/05/07 05:07:39;;;;;;;13.03;2.40;;;;;;;16.99;71.08;100221.63;5056922;28;20073;-72
2023/05/07 05:10:05;;;;;;;9.40;2.20;;;;;;;16.98;71.12;100218.97;5050231;28;20489;-72
2023/05/07 05:12:31;;;;;;;12.20;2.08;;;;;;;16.99;71.10;100223.38;5060619;28;20059;-72
2023/05/07 05:14:56;;;;;;;9.50;2.20;;;;;;;16.98;71.01;100222.53;5077057;28;20381;-72
2023/05/07 05:17:22;;;;;;;13.53;2.30;;;;;;;17.00;70.91;100219.81;5073711;28;20021;-72
2023/05/07 05:19:47;;;;;;;11.77;2.07;;;;;;;16.98;71.13;100222.53;5056753;28;20025;-72
2023/05/07 05:22:12;;;;;;;11.43;2.57;;;;;;;17.00;71.08;100219.81;5060755;28;20024;-72
2023/05/07 05:24:38;;;;;;;11.83;2.27;;;;;;;17.05;71.11;100225.88;5060683;28;20608;-72
2023/05/07 05:27:03;;;;;;;6.93;2.17;;;;;;;17.07;70.86;100229.38;5056570;28;20099;-72
2023/05/07 05:29:31;;;;;;;12.63;2.80;;;;;;;17.11;70.97;100231.00;5056585;28;20060;-72
2023/05/07 05:31:56;;;;;;;13.38;2.20;;;;;;;17.12;70.96;100238.06;5056508;28;20020;-72
2023/05/07 05:34:21;;;;;;;11.87;2.47;;;;;;;17.11;70.97;100243.41;5072276;28;20029;-72
2023/05/07 05:36:47;;;;;;;14.20;2.70;;;;;;;17.08;70.89;100241.75;5076648;28;20048;-72
2023/05/07 05:39:12;;;;;;;11.57;2.67;;;;;;;17.08;70.98;100241.75;5076491;28;20029;-72
2023/05/07 05:41:38;;;;;;;10.53;2.53;;;;;;;17.09;71.04;100248.81;5071796;28;20020;-72
2023/05/07 05:44:03;;;;;;;10.23;2.30;;;;;;;17.11;71.02;100254.06;5061541;28;20063;-72
2023/05/07 05:46:29;;;;;;;14.53;2.50;;;;;;;17.13;71.09;100269.06;5056448;28;20048;-72
2023/05/07 05:48:55;;;;;;;10.80;2.70;;;;;;;17.14;71.00;100262.81;5056241;28;20070;-72
2023/05/07 05:51:21;;;;;;;13.57;2.90;;;;;;;17.12;70.87;100269.09;5060956;28;20504;-71
2023/05/07 05:53:46;;;;;;;11.18;1.90;;;;;;;17.12;70.92;100272.66;5056363;28;20025;-71
2023/05/07 05:56:12;;;;;;;11.20;2.70;;;;;;;17.13;71.00;100269.06;5056372;28;20115;-71
2023/05/07 05:58:37;;;;;;;11.40;2.20;;;;;;;17.12;71.14;100277.97;5055862;28;20473;-72
2023/05/07 06:01:03;;;;;;;10.10;2.60;;;;;;;17.07;71.11;100278.09;5061658;28;20110;-71
2023/05/07 06:03:29;;;;;;;11.93;2.13;;;;;;;17.03;71.19;100278.28;5056375;28;20381;-71
2023/05/07 06:05:54;;;;;;;13.57;2.20;;;;;;;17.03;71.32;100278.28;5056218;28;20033;-71
2023/05/07 06:08:19;;;;;;;13.93;2.87;;;;;;;17.01;71.24;100280.09;5056626;28;20021;-71
2023/05/07 06:10:45;;;;;;;15.30;2.55;;;;;;;17.01;71.13;100274.78;5076066;28;20032;-71
2023/05/07 06:13:10;;;;;;;13.80;2.70;;;;;;;16.98;71.27;100280.13;5075834;28;20036;-71
2023/05/07 06:15:36;;;;;;;12.77;2.50;;;;;;;16.98;71.48;100280.13;5078012;28;20031;-71
2023/05/07 06:18:02;;;;;;;8.48;2.17;;;;;;;16.99;71.43;100281.91;5047426;28;20017;-71
2023/05/07 06:20:28;;;;;;;15.17;2.63;;;;;;;17.00;71.23;100278.34;5067479;28;20033;-71
2023/05/07 06:22:53;;;;;;;13.98;2.03;;;;;;;17.02;70.99;100277.38;5057392;28;20025;-71
2023/05/07 06:25:19;;;;;;;15.10;2.70;;;;;;;17.04;71.05;100280.00;5067814;28;20040;-71
2023/05/07 06:27:44;;;;;;;15.27;2.50;;;;;;;17.06;70.93;100284.34;5055870;28;20052;-71
2023/05/07 06:30:10;;;;;;;11.47;2.30;;;;;;;17.09;70.91;100283.41;5038310;28;20029;-72
2023/05/07 06:32:36;;;;;;;14.55;2.58;;;;;;;17.10;70.82;100293.13;5057005;28;20024;-71
2023/05/07 06:35:01;;;;;;;13.48;2.58;;;;;;;17.07;70.97;100302.06;5076574;28;20024;-74
2023/05/07 06:37:27;;;;;;;10.20;2.20;;;;;;;17.07;70.76;100295.88;5074673;28;20025;-72
2023/05/07 06:39:52;;;;;;;10.33;1.87;;;;;;;17.07;71.06;100299.38;5079711;28;20150;-72
2023/05/07 06:42:18;;;;;;;13.23;2.30;;;;;;;17.12;70.80;100303.69;5074500;28;20024;-72
2023/05/07 06:44:43;;;;;;;14.17;2.40;;;;;;;17.11;71.01;100302.84;5079418;28;20032;-72
2023/05/07 06:47:08;;;;;;;10.23;2.33;;;;;;;17.09;71.17;100304.69;5079476;28;20103;-72
2023/05/07 06:49:34;;;;;;;10.77;2.30;;;;;;;17.08;71.16;100303.78;5079592;28;20492;-72
2023/05/07 06:51:59;;;;;;;12.93;2.30;;;;;;;17.12;71.09;100309.00;5065138;28;20028;-72
2023/05/07 06:54:25;;;;;;;11.73;2.43;;;;;;;17.15;71.06;100309.81;5059673;28;20025;-72
2023/05/07 06:56:50;;;;;;;16.17;3.10;;;;;;;17.16;71.01;100311.53;5059065;28;20028;-72
2023/05/07 06:59:15;;;;;;;12.27;2.23;;;;;;;17.16;71.06;100316.88;5059261;28;20037;-72
2023/05/07 07:01:41;;;;;;;10.40;2.70;;;;;;;17.19;70.91;100313.25;5063737;28;20024;-72
2023/05/07 07:04:06;;;;;;;13.30;3.00;;;;;;;17.21;71.02;100314.06;5059329;28;20400;-72
2023/05/07 07:06:32;;;;;;;11.30;2.73;;;;;;;17.24;71.22;100315.75;5057781;28;20086;-72
2023/05/07 07:08:58;;;;;;;13.57;2.85;;;;;;;17.24;70.99;100313.97;5079299;28;20024;-72
2023/05/07 07:11:23;;;;;;;16.13;2.58;;;;;;;17.24;71.17;100319.28;5064584;28;20032;-71
2023/05/07 07:13:50;;;;;;;12.43;2.73;;;;;;;17.24;71.05;100323.72;5059270;28;20029;-71
2023/05/07 07:16:15;;;;;;;14.48;2.67;;;;;;;17.21;71.30;100317.59;5071662;28;20027;-71
2023/05/07 07:18:41;;;;;;;10.57;2.80;;;;;;;17.20;71.32;100328.28;5064785;28;20028;-71
2023/05/07 07:21:06;;;;;;;12.60;3.30;;;;;;;17.20;71.42;100322.97;5064787;28;20021;-71
2023/05/07 07:23:32;;;;;;;11.70;2.40;;;;;;;17.22;71.64;100322.00;5065527;28;20545;-71
2023/05/07 07:25:57;;;;;;;14.25;2.40;;;;;;;17.26;71.20;100321.91;5064814;28;20728;-71
2023/05/07 07:28:23;;;;;;;14.13;2.50;;;;;;;17.28;71.38;100322.75;5058584;28;20074;-71
2023/05/07 07:30:48;;;;;;;12.00;2.27;;;;;;;17.33;71.17;100331.44;5040430;28;20521;-71
2023/05/07 07:33:14;;;;;;;13.40;2.40;;;;;;;17.39;71.05;100333.06;5065240;28;20020;-72
2023/05/07 07:35:40;;;;;;;10.65;2.30;;;;;;;17.43;71.06;100327.56;5078953;28;20024;-72
2023/05/07 07:38:05;;;;;;;13.23;2.75;;;;;;;17.49;71.15;100329.16;5078867;28;20567;-72
2023/05/07 07:40:30;;;;;;;11.93;2.50;;;;;;;17.54;70.95;100321.03;5078455;28;20103;-72
2023/05/07 07:42:56;;;;;;;11.80;2.63;;;;;;;17.57;70.63;100326.28;5067021;28;20033;-72
2023/05/07 07:45:22;;;;;;;13.82;2.72;;;;;;;17.61;70.67;100326.13;5058505;28;20400;-72
2023/05/07 07:47:47;;;;;;;12.70;2.93;;;;;;;17.65;70.54;100330.44;5057258;28;20112;-72
2023/05/07 07:50:12;;;;;;;13.50;2.63;;;;;;;17.66;70.63;100325.97;5062150;28;20024;-72
2023/05/07 07:52:38;;;;;;;14.53;2.63;;;;;;;17.73;70.57;100335.50;5058563;28;20032;-73
2023/05/07 07:55:04;;;;;;;11.90;2.97;;;;;;;17.76;70.27;100338.06;5058501;28;20016;-73
2023/05/07 07:57:30;;;;;;;8.80;2.70;;;;;;;17.84;70.51;100342.25;5039893;28;20112;-72
2023/05/07 07:59:55;;;;;;;13.32;2.75;;;;;;;17.89;70.22;100343.88;5062489;28;20057;-73
2023/05/07 08:02:20;;;;;;;12.43;2.53;;;;;;;17.98;70.12;100347.13;5071835;28;20106;-73
2023/05/07 08:04:46;;;;;;;14.23;2.90;;;;;;;18.05;70.16;100343.34;5078046;28;20432;-73
2023/05/07 08:07:11;;;;;;;10.63;2.77;;;;;;;18.14;69.94;100336.84;5078213;28;20154;-73
2023/05/07 08:09:39;;;;;;;12.88;2.83;;;;;;;18.19;69.79;100349.09;5078033;28;20031;-73
2023/05/07 08:12:07;;;;;;;12.00;3.00;;;;;;;18.17;69.51;100347.41;5057632;28;20056;-74
2023/05/07 08:14:33;;;;;;;14.10;2.80;;;;;;;18.13;69.49;100345.75;5058012;28;20029;-73
2023/05/07 08:16:58;;;;;;;13.25;2.80;;;;;;;18.07;69.38;100347.72;5071707;28;20044;-72
2023/05/07 08:19:24;;;;;;;12.73;2.53;;;;;;;18.02;69.60;100349.69;5069526;28;20028;-72
2023/05/07 08:21:50;;;;;;;12.23;2.58;;;;;;;18.00;69.65;100351.50;5077957;28;20058;-72
2023/05/07 08:24:16;;;;;;;13.02;2.60;;;;;;;18.00;69.56;100351.50;5065022;28;20378;-72
2023/05/07 08:26:41;;;;;;;13.40;3.27;;;;;;;18.05;69.75;100352.22;5057203;28;20025;-74
2023/05/07 08:29:07;;;;;;;13.27;2.97;;;;;;;18.03;69.81;100355.88;5057788;28;20024;-74
2023/05/07 08:31:32;;;;;;;13.97;2.73;;;;;;;18.02;69.78;100357.69;5057274;28;20264;-74
2023/05/07 08:33:58;;;;;;;13.90;2.90;;;;;;;18.00;69.88;100351.50;5070325;28;20029;-74
2023/05/07 08:36:25;;;;;;;12.93;2.88;;;;;;;18.04;69.91;100358.50;5077426;28;20033;-74
2023/05/07 08:38:50;;;;;;;14.07;2.33;;;;;;;18.10;69.60;100359.19;5077371;28;20032;-72
2023/05/07 08:41:16;;;;;;;13.03;2.80;;;;;;;18.20;69.19;100361.50;5071889;28;20564;-72
2023/05/07 08:43:41;;;;;;;10.90;2.67;;;;;;;18.28;68.35;100361.25;5064655;28;20449;-72
2023/05/07 08:46:09;;;;;;;10.23;2.27;;;;;;;18.36;68.43;100358.31;5039301;28;20029;-73
2023/05/07 08:48:35;;;;;;;12.55;2.30;;;;;;;18.38;68.41;100363.56;5057246;28;20051;-73
2023/05/07 08:51:01;;;;;;;12.77;2.60;;;;;;;18.38;68.18;100367.13;5061476;28;20035;-73
2023/05/07 08:53:26;;;;;;;12.20;2.85;;;;;;;18.34;68.07;100374.34;5057210;28;20108;-73
2023/05/07 08:55:52;;;;;;;12.83;2.90;;;;;;;18.31;68.10;100371.78;5057090;28;20481;-73
2023/05/07 08:58:18;;;;;;;11.68;2.47;;;;;;;18.33;67.96;100369.09;5067339;28;20078;-75
2023/05/07 09:00:43;;;;;;;9.83;2.27;;;;;;;18.32;68.10;100369.97;5065620;28;20580;-75
2023/05/07 09:03:12;;;;;;;11.13;2.40;;;;;;;18.32;67.97;100373.53;5039256;28;20086;-75
2023/05/07 09:05:37;;;;;;;13.27;2.67;;;;;;;18.34;68.26;100370.81;5056818;28;20474;-75
2023/05/07 09:08:03;;;;;;;11.07;2.92;;;;;;;18.34;68.06;100369.00;5057136;28;20056;-75
2023/05/07 09:10:29;;;;;;;11.23;3.13;;;;;;;18.32;68.16;100373.53;5068806;28;20032;-72
2023/05/07 09:12:55;;;;;;;12.88;2.40;;;;;;;18.31;68.16;100371.78;5056387;28;20082;-72
2023/05/07 09:15:20;;;;;;;14.23;2.97;;;;;;;18.31;67.97;100377.13;5056602;28;20093;-73
2023/05/07 09:17:46;;;;;;;10.57;2.55;;;;;;;18.32;67.96;100372.66;5071797;28;20036;-73
2023/05/07 09:20:11;;;;;;;14.73;2.63;;;;;;;18.35;68.13;100373.41;5075035;28;20032;-73
2023/05/07 09:22:37;;;;;;;14.53;2.83;;;;;;;18.35;67.93;100370.75;5076683;28;20024;-73
2023/05/07 09:25:03;;;;;;;16.77;2.60;;;;;;;18.37;67.48;100376.06;5057335;28;20029;-73
2023/05/07 09:27:30;;;;;;;15.82;2.70;;;;;;;18.39;67.43;100374.19;5056459;28;20059;-73
2023/05/07 09:29:55;;;;;;;14.30;2.60;;;;;;;18.45;67.51;100378.44;5056424;28;20020;-73
2023/05/07 09:32:21;;;;;;;15.63;2.40;;;;;;;18.51;67.06;100378.22;5056524;28;20047;-73
2023/05/07 09:34:47;;;;;;;16.13;3.10;;;;;;;18.56;66.87;100373.59;5075795;28;20024;-73
2023/05/07 09:37:13;;;;;;;12.77;2.95;;;;;;;18.59;66.85;100373.47;5058499;28;20024;-73
2023/05/07 09:39:42;;;;;;;14.70;3.10;;;;;;;18.68;66.86;100374.94;5058441;28;21205;-73
2023/05/07 09:42:08;;;;;;;11.25;2.78;;;;;;;18.76;66.67;100372.00;5053541;28;20029;-74
2023/05/07 09:44:35;;;;;;;14.57;3.10;;;;;;;18.89;66.27;100372.44;5056611;28;20404;-74
2023/05/07 09:47:01;;;;;;;13.02;2.67;;;;;;;19.04;65.77;100366.53;5056546;28;20048;-74
2023/05/07 09:49:30;;;;;;;17.27;2.60;;;;;;;19.20;65.65;100371.28;5063377;28;20028;-74
2023/05/07 09:51:56;;;;;;;14.00;2.50;;;;;;;19.38;64.99;100374.19;5044851;28;20028;-74
2023/05/07 09:54:22;;;;;;;10.43;2.50;;;;;;;19.49;64.43;100372.84;5065299;28;20071;-74
2023/05/07 09:56:51;;;;;;;15.63;2.50;;;;;;;19.54;64.25;100370.00;5076118;28;20028;-74
2023/05/07 09:59:18;;;;;;;10.77;2.23;;;;;;;19.61;64.31;100365.25;5076166;28;20068;-74
2023/05/07 10:01:44;;;;;;;13.40;2.22;;;;;;;19.63;64.09;100368.72;5056648;28;20033;-74
2023/05/07 10:04:11;;;;;;;14.68;2.50;;;;;;;19.66;63.75;100363.28;5056388;28;20037;-74
2023/05/07 10:06:40;;;;;;;12.55;2.00;;;;;;;19.70;63.95;100364.91;5056111;28;20481;-74
2023/05/07 10:09:06;;;;;;;13.35;2.70;;;;;;;19.73;63.93;100371.91;5062670;28;20024;-73
2023/05/07 10:11:33;;;;;;;12.53;2.67;;;;;;;19.75;63.80;100373.59;5064078;28;20036;-74
2023/05/07 10:13:59;;;;;;;12.43;2.45;;;;;;;19.77;63.49;100368.16;5042171;28;20025;-74
2023/05/07 10:16:25;;;;;;;11.27;2.43;;;;;;;19.74;63.24;100371.84;5083723;28;20032;-74
2023/05/07 10:18:51;;;;;;;13.30;2.97;;;;;;;19.74;63.80;100379.88;5060052;28;20504;-74
2023/05/07 10:21:19;;;;;;;13.18;2.97;;;;;;;19.72;63.56;100372.84;5042133;28;20459;-72
2023/05/07 10:23:48;;;;;;;13.98;3.15;;;;;;;19.68;63.44;100373.91;5068701;28;20486;-73
2023/05/07 10:26:14;;;;;;;12.67;2.37;;;;;;;19.70;63.51;100375.59;5064063;28;20040;-75
2023/05/07 10:28:43;;;;;;;13.73;2.60;;;;;;;19.72;63.38;100381.72;5060009;28;20035;-74
2023/05/07 10:31:21;;;;;;;14.48;2.72;;;;;;;19.74;63.60;100377.19;5059768;28;20029;-74
2023/05/07 10:33:51;;;;;;;16.80;3.20;;;;;;;19.72;63.50;100381.72;5071047;28;20028;-74
2023/05/07 10:36:17;;;;;;;16.63;3.13;;;;;;;19.59;64.34;100391.16;5079693;28;20417;-71
2023/05/07 10:38:43;;;;;;;17.27;3.10;;;;;;;19.39;64.88;100391.94;5079729;28;20028;-71
2023/05/07 10:41:09;;;;;;;12.88;3.17;;;;;;;19.25;65.29;100395.16;5074834;28;20029;-72
2023/05/07 10:43:42;;;;;;;13.82;2.95;;;;;;;19.17;66.11;100395.44;5068281;28;20029;-72
2023/05/07 10:46:20;;;;;;;14.52;3.15;;;;;;;19.16;66.29;100397.22;5059432;28;20035;-71
2023/05/07 10:49:01;;;;;;;14.63;2.90;;;;;;;19.11;66.52;100401.88;5059618;28;20063;-71
2023/05/07 10:51:27;;;;;;;16.48;4.20;;;;;;;19.09;66.44;100401.06;5047759;28;20044;-72
2023/05/07 10:54:11;;;;;;;12.38;2.70;;;;;;;19.07;66.75;100401.13;5075993;28;20029;-72
2023/05/07 10:56:37;;;;;;;14.20;2.95;;;;;;;19.13;66.10;100402.69;5079159;28;20769;-72
2023/05/07 10:59:33;;;;;;;11.35;2.45;;;;;;;19.19;65.57;100399.81;5078982;28;20049;-72
2023/05/07 11:02:05;;;;;;;15.23;2.53;;;;;;;19.27;65.79;100393.28;5059309;28;20465;-72
2023/05/07 11:04:34;;;;;;;9.48;1.98;;;;;;;19.31;65.23;100392.25;5059433;28;20489;-72
2023/05/07 11:07:06;;;;;;;14.20;3.03;;;;;;;19.35;65.48;100392.06;5059206;28;20032;-72
2023/05/07 11:09:53;;;;;;;9.93;2.00;;;;;;;19.35;65.05;100393.84;5051049;28;20492;-72
2023/05/07 11:12:41;;;;;;;9.70;2.03;;;;;;;19.37;64.62;100392.00;5073910;28;21057;-72
2023/05/07 11:15:11;;;;;;;9.23;1.87;;;;;;;19.47;64.12;100389.84;5047811;28;20043;-72